Time;durP1;ratioP1;P1;durP2;ratioP2;P2;SDS_P1;SDS_P2;PMS_P1;PMS_P2;Temp;Humidity;BMP_temperature;BMP_pressure;BME280_temperature;BME280_humidity;BME280_pressure;Samples;Min_cycle;Max_cycle;Signal;HPM_P1;HPM_P2
2022/03/01 00:00:25;;;;;;;;;;;;;;;9.68;100.00;99957.16;5074683;28;20376;-78
2022/03/01 00:02:52;;;;;;;;;;;;;;;9.13;100.00;99957.38;5076069;28;20360;-78
2022/03/01 00:05:19;;;;;;;;;;;;;;;9.26;100.00;99951.44;5058622;28;20372;-77
2022/03/01 00:07:46;;;;;;;;;;;;;;;9.62;100.00;99953.16;5067651;28;19931;-78
2022/03/01 00:10:13;;;;;;;;;;;;;;;9.80;100.00;99953.97;5035481;28;19964;-78
2022/03/01 00:12:40;;;;;;;;;;;;;;;9.22;100.00;99956.22;5074469;28;20356;-77
2022/03/01 00:15:07;;;;;;;;;;;;;;;9.42;100.00;99955.47;5057779;28;19932;-78
2022/03/01 00:17:35;;;;;;;;;;;;;;;9.72;100.00;99957.94;5058005;28;19924;-78
2022/03/01 00:20:03;;;;;;;;;;;;;;;9.80;100.00;99959.56;5074300;28;20375;-78
2022/03/01 00:22:31;;;;;;;;;;;;;;;9.72;100.00;99958.75;5056036;28;19971;-78
2022/03/01 00:24:59;;;;;;;;;;;;;;;9.55;100.00;99959.50;5037683;28;20364;-78
2022/03/01 00:27:26;;;;;;;;;;;;;;;9.34;100.00;99967.00;5037993;28;19924;-78
2022/03/01 00:29:53;;;;;;;;;;;;;;;8.81;100.00;99962.03;5087725;28;19932;-78
2022/03/01 00:32:20;;;;;;;;;;;;;;;8.88;100.00;99961.25;5038124;28;20292;-77
2022/03/01 00:34:47;;;;;;;;;;;;;;;8.77;100.00;99957.59;5054303;28;20364;-78
2022/03/01 00:37:14;;;;;;;;;;;;;;;9.05;100.00;99968.88;5054165;28;19932;-78
2022/03/01 00:39:41;;;;;;;;;;;;;;;9.11;100.00;99970.91;5097450;28;19982;-78
2022/03/01 00:42:08;;;;;;;;;;;;;;;9.39;100.00;99972.22;5057645;28;20268;-78
2022/03/01 00:44:36;;;;;;;;;;;;;;;9.12;100.00;99969.72;5074000;28;19924;-78
2022/03/01 00:47:03;;;;;;;;;;;;;;;9.04;100.00;99973.66;5073801;28;20391;-78
2022/03/01 00:49:30;;;;;;;;;;;;;;;9.14;100.00;99978.50;5075155;28;19928;-78
2022/03/01 00:51:58;;;;;;;;;;;;;;;9.25;100.00;99983.31;5073988;28;20295;-78
2022/03/01 00:54:25;;;;;;;;;;;;;;;9.28;100.00;99982.53;5040629;28;20295;-78
2022/03/01 00:56:52;;;;;;;;;;;;;;;8.65;100.00;100000.53;5057298;28;20371;-78
2022/03/01 00:59:19;;;;;;;;;;;;;;;8.45;100.00;99998.41;5074912;28;19925;-78
2022/03/01 01:01:46;;;;;;;;;;;;;;;8.35;100.00;100001.88;5056909;28;19924;-78
2022/03/01 01:04:14;;;;;;;;;;;;;;;8.34;100.00;100015.03;5073220;28;19924;-78
2022/03/01 01:06:41;;;;;;;;;;;;;;;8.30;100.00;100011.41;5074696;28;20047;-78
2022/03/01 01:09:12;;;;;;;;;;;;;;;8.41;100.00;100009.50;5073591;28;19925;-78
2022/03/01 01:11:43;;;;;;;;;;;;;;;8.51;100.00;100005.22;5073391;28;20377;-78
2022/03/01 01:14:10;;;;;;;;;;;;;;;8.59;100.00;100012.41;5073654;28;20320;-78
2022/03/01 01:16:37;;;;;;;;;;;;;;;8.60;100.00;100025.16;5043741;28;20375;-78
2022/03/01 01:19:04;;;;;;;;;;;;;;;8.47;100.00;100021.88;5053378;28;19925;-78
2022/03/01 01:24:17;;;;;;;;;;;;;;;8.01;100.00;100020.66;5052711;28;19956;-78
2022/03/01 01:26:44;;;;;;;;;;;;;;;8.08;100.00;100039.41;5054153;28;19969;-78
2022/03/01 01:29:13;;;;;;;;;;;;;;;8.17;100.00;100039.91;5054562;28;20011;-78
2022/03/01 01:31:41;;;;;;;;;;;;;;;8.29;100.00;100054.38;5054361;28;20359;-78
2022/03/01 01:34:08;;;;;;;;;;;;;;;7.96;100.00;100051.63;5053947;28;19931;-78
2022/03/01 01:36:35;;;;;;;;;;;;;;;7.79;100.00;100057.00;5036710;28;20311;-78
2022/03/01 01:39:03;;;;;;;;;;;;;;;7.92;100.00;100050.78;5053048;28;19979;-78
2022/03/01 01:41:30;;;;;;;;;;;;;;;7.96;100.00;100057.19;5039104;28;20054;-78
2022/03/01 01:43:59;;;;;;;;;;;;;;;8.00;100.00;100063.59;5056047;28;19924;-78
2022/03/01 01:46:26;;;;;;;;;;;;;;;7.98;100.00;100063.16;5073419;28;20336;-78
2022/03/01 01:48:53;;;;;;;;;;;;;;;7.37;100.00;100057.31;5072945;28;20380;-78
2022/03/01 01:51:23;;;;;;;;;;;;;;;7.57;100.00;100064.34;5072858;28;19924;-78
2022/03/01 01:53:51;;;;;;;;;;;;;;;7.67;100.00;100066.44;5074170;28;19928;-78
2022/03/01 01:56:19;;;;;;;;;;;;;;;7.67;100.00;100072.00;5072815;28;20283;-78
2022/03/01 01:58:46;;;;;;;;;;;;;;;7.28;100.00;100076.28;5072553;28;19924;-78
2022/03/01 02:01:15;;;;;;;;;;;;;;;7.50;100.00;100069.78;5072681;28;19928;-78
2022/03/01 02:03:42;;;;;;;;;;;;;;;7.37;100.00;100090.69;5056186;28;19925;-78
2022/03/01 02:06:09;;;;;;;;;;;;;;;7.23;100.00;100084.94;5072735;28;19924;-78
2022/03/01 02:08:36;;;;;;;;;;;;;;;7.21;100.00;100076.16;5089836;28;19928;-78
2022/03/01 02:11:03;;;;;;;;;;;;;;;7.18;100.00;100082.47;5072382;28;19982;-78
2022/03/01 02:13:30;;;;;;;;;;;;;;;6.93;100.00;100089.66;5072824;28;19990;-78
2022/03/01 02:16:00;;;;;;;;;;;;;;;7.09;100.00;100073.63;5072704;28;19932;-78
2022/03/01 02:18:27;;;;;;;;;;;;;;;7.08;100.00;100072.03;5072631;28;19931;-78
2022/03/01 02:20:54;;;;;;;;;;;;;;;6.64;100.00;100085.66;5073689;28;19925;-78
2022/03/01 02:23:22;;;;;;;;;;;;;;;6.57;100.00;100090.31;5072576;28;19994;-78
2022/03/01 02:25:49;;;;;;;;;;;;;;;6.54;100.00;100085.50;5055730;28;19925;-78
2022/03/01 02:28:16;;;;;;;;;;;;;;;6.75;100.00;100085.84;5072385;28;19928;-78
2022/03/01 02:30:43;;;;;;;;;;;;;;;6.70;100.00;100094.47;5072400;28;19924;-78
2022/03/01 02:33:11;;;;;;;;;;;;;;;6.91;100.00;100090.03;5073805;28;20291;-78
2022/03/01 02:35:38;;;;;;;;;;;;;;;6.68;100.00;100085.72;5073465;28;20443;-78
2022/03/01 02:38:05;;;;;;;;;;;;;;;7.06;100.00;100093.81;5073836;28;19925;-78
2022/03/01 02:40:33;;;;;;;;;;;;;;;6.97;100.00;100088.53;5055807;28;19978;-78
2022/03/01 02:43:00;;;;;;;;;;;;;;;7.05;100.00;100095.81;5073633;28;20292;-78
2022/03/01 02:45:27;;;;;;;;;;;;;;;7.26;100.00;100095.31;5072312;28;20010;-78
2022/03/01 02:47:54;;;;;;;;;;;;;;;7.20;100.00;100096.81;5073683;28;19932;-78
2022/03/01 02:50:21;;;;;;;;;;;;;;;6.88;100.00;100099.13;5072286;28;20395;-78
2022/03/01 02:52:48;;;;;;;;;;;;;;;7.23;100.00;100107.16;5072628;28;19925;-79
2022/03/01 02:55:15;;;;;;;;;;;;;;;6.91;100.00;100111.47;5073667;28;19931;-79
2022/03/01 02:57:43;;;;;;;;;;;;;;;7.34;100.00;100113.69;5072466;28;20025;-79
2022/03/01 03:00:10;;;;;;;;;;;;;;;7.39;100.00;100116.16;5072388;28;20598;-78
2022/03/01 03:02:39;;;;;;;;;;;;;;;7.57;100.00;100119.97;5073397;28;19924;-78
2022/03/01 03:05:06;;;;;;;;;;;;;;;7.85;100.00;100114.72;5089368;28;19924;-78
2022/03/01 03:07:33;;;;;;;;;;;;;;;7.91;100.00;100121.53;5072291;28;19925;-78
2022/03/01 03:10:01;;;;;;;;;;;;;;;7.89;100.00;100112.78;5055945;28;19935;-78
2022/03/01 03:12:29;;;;;;;;;;;;;;;8.06;100.00;100117.72;5075993;28;19983;-78
2022/03/01 03:14:56;;;;;;;;;;;;;;;8.04;100.00;100110.97;5076084;28;19932;-78
2022/03/01 03:17:23;;;;;;;;;;;;;;;7.84;100.00;100109.53;5059471;28;19925;-78
2022/03/01 03:19:51;;;;;;;;;;;;;;;7.97;100.00;100117.25;5076199;28;19979;-79
2022/03/01 03:22:19;;;;;;;;;;;;;;;7.69;100.00;100107.78;5042906;28;19931;-78
2022/03/01 03:24:46;;;;;;;;;;;;;;;7.65;100.00;100112.50;5076931;28;20395;-78
2022/03/01 03:27:13;;;;;;;;;;;;;;;7.53;100.00;100112.75;5026329;28;19925;-78
2022/03/01 03:29:40;;;;;;;;;;;;;;;7.61;100.00;100101.31;5042602;28;19924;-78
2022/03/01 03:32:07;;;;;;;;;;;;;;;7.59;100.00;100109.22;5075369;28;19956;-78
2022/03/01 03:34:37;;;;;;;;;;;;;;;7.71;100.00;100111.75;5042188;28;19977;-78
2022/03/01 03:37:05;;;;;;;;;;;;;;;7.90;100.00;100113.56;5075563;28;19924;-79
2022/03/01 03:39:32;;;;;;;;;;;;;;;8.00;100.00;100113.69;5075140;28;20402;-79
2022/03/01 03:41:59;;;;;;;;;;;;;;;7.81;100.00;100101.94;5075161;28;19978;-79
2022/03/01 03:44:26;;;;;;;;;;;;;;;7.79;100.00;100107.91;5075352;28;19925;-79
2022/03/01 03:46:53;;;;;;;;;;;;;;;7.73;100.00;100108.59;5076995;28;19974;-79
2022/03/01 03:49:22;;;;;;;;;;;;;;;7.96;100.00;100110.09;5058991;28;19932;-79
2022/03/01 03:51:50;;;;;;;;;;;;;;;7.83;100.00;100113.50;5059189;28;19925;-79
2022/03/01 03:54:17;;;;;;;;;;;;;;;7.66;100.00;100103.78;5075659;28;19925;-79
2022/03/01 03:56:44;;;;;;;;;;;;;;;7.59;100.00;100102.88;5056731;28;20331;-79
2022/03/01 03:59:11;;;;;;;;;;;;;;;7.60;100.00;100105.28;5056725;28;19924;-79
2022/03/01 04:01:38;;;;;;;;;;;;;;;7.71;100.00;100119.34;5055213;28;19925;-79
2022/03/01 04:04:08;;;;;;;;;;;;;;;7.76;100.00;100108.66;5038530;28;19925;-79
2022/03/01 04:06:35;;;;;;;;;;;;;;;7.71;100.00;100105.41;5055163;28;19925;-79
2022/03/01 04:09:03;;;;;;;;;;;;;;;7.85;100.00;100117.50;5071250;28;20425;-79
2022/03/01 04:11:30;;;;;;;;;;;;;;;7.73;100.00;100112.19;5092273;28;20349;-79
2022/03/01 04:13:59;;;;;;;;;;;;;;;7.52;100.00;100114.72;5074843;28;19978;-78
2022/03/01 04:16:29;;;;;;;;;;;;;;;7.49;100.00;100115.47;5058396;28;19924;-78
2022/03/01 04:18:57;;;;;;;;;;;;;;;7.56;100.00;100115.56;5075161;28;19928;-78
2022/03/01 04:21:25;;;;;;;;;;;;;;;7.70;100.00;100124.09;5056178;28;19931;-78
2022/03/01 04:23:53;;;;;;;;;;;;;;;7.52;100.00;100122.25;5053830;28;19949;-78
2022/03/01 04:26:20;;;;;;;;;;;;;;;7.48;100.00;100122.22;5054839;28;19924;-78
2022/03/01 04:28:47;;;;;;;;;;;;;;;7.48;100.00;100127.78;5054512;28;20335;-78
2022/03/01 04:31:14;;;;;;;;;;;;;;;7.49;100.00;100118.25;5088157;28;19928;-79
2022/03/01 04:33:41;;;;;;;;;;;;;;;7.26;100.00;100134.22;5038074;28;19931;-78
2022/03/01 04:36:08;;;;;;;;;;;;;;;7.31;100.00;100131.91;5055569;28;20010;-78
2022/03/01 04:38:36;;;;;;;;;;;;;;;7.42;100.00;100126.50;5054419;28;20394;-78
2022/03/01 04:41:03;;;;;;;;;;;;;;;7.36;100.00;100128.81;5041305;28;19994;-78
2022/03/01 04:43:30;;;;;;;;;;;;;;;7.39;100.00;100130.06;5061506;28;19932;-78
2022/03/01 04:45:57;;;;;;;;;;;;;;;7.37;100.00;100129.63;5054242;28;19925;-78
2022/03/01 04:48:25;;;;;;;;;;;;;;;7.25;100.00;100132.63;5054406;28;19924;-78
2022/03/01 04:50:53;;;;;;;;;;;;;;;7.35;100.00;100129.19;5054089;28;19928;-78
2022/03/01 04:53:20;;;;;;;;;;;;;;;7.30;100.00;100137.84;5054287;28;19925;-78
2022/03/01 04:55:47;;;;;;;;;;;;;;;7.49;100.00;100137.72;5054226;28;20335;-78
2022/03/01 04:58:17;;;;;;;;;;;;;;;7.22;100.00;100138.94;5054166;28;19925;-78
2022/03/01 05:00:44;;;;;;;;;;;;;;;7.43;100.00;100133.66;5053643;28;19925;-79
2022/03/01 05:03:11;;;;;;;;;;;;;;;7.40;100.00;100145.56;5053519;28;19968;-78
2022/03/01 05:05:39;;;;;;;;;;;;;;;7.55;100.00;100147.34;5086704;28;19994;-78
2022/03/01 05:08:06;;;;;;;;;;;;;;;7.23;100.00;100146.09;5087204;28;20508;-78
2022/03/01 05:10:33;;;;;;;;;;;;;;;6.97;100.00;100155.25;5086925;28;19936;-79
2022/03/01 05:13:03;;;;;;;;;;;;;;;7.27;100.00;100152.50;5037308;28;19924;-78
2022/03/01 05:15:32;;;;;;;;;;;;;;;7.41;100.00;100147.13;5086646;28;19925;-78
2022/03/01 05:17:59;;;;;;;;;;;;;;;7.38;100.00;100142.34;5037180;28;19925;-78
2022/03/01 05:20:27;;;;;;;;;;;;;;;7.21;100.00;100148.44;5053450;28;19929;-78
2022/03/01 05:22:55;;;;;;;;;;;;;;;7.13;100.00;100143.97;5053341;28;19932;-78
2022/03/01 05:25:23;;;;;;;;;;;;;;;6.94;100.00;100144.06;5059292;28;19928;-78
2022/03/01 05:27:51;;;;;;;;;;;;;;;6.86;100.00;100136.81;5073376;28;19925;-78
2022/03/01 05:30:19;;;;;;;;;;;;;;;7.10;100.00;100141.94;5073285;28;20015;-78
2022/03/01 05:32:48;;;;;;;;;;;;;;;7.06;100.00;100143.84;5090063;28;19924;-78
2022/03/01 05:35:16;;;;;;;;;;;;;;;6.72;100.00;100148.50;5072996;28;19928;-78
2022/03/01 05:37:44;;;;;;;;;;;;;;;6.23;100.00;100163.47;5073395;28;19928;-78
2022/03/01 05:40:14;;;;;;;;;;;;;;;6.25;100.00;100175.00;5073215;28;20390;-78
2022/03/01 05:42:41;;;;;;;;;;;;;;;6.21;100.00;100161.06;5074373;28;20390;-78
2022/03/01 05:45:08;;;;;;;;;;;;;;;6.38;100.00;100151.44;5072923;28;19925;-78
2022/03/01 05:47:35;;;;;;;;;;;;;;;5.81;100.00;100151.50;5040039;28;20022;-78
2022/03/01 05:50:03;;;;;;;;;;;;;;;6.27;100.00;100167.13;5074099;28;20018;-78
2022/03/01 05:52:30;;;;;;;;;;;;;;;6.26;100.00;100177.41;5073232;28;19924;-78
2022/03/01 05:54:59;;;;;;;;;;;;;;;6.06;100.00;100178.59;5056653;28;20018;-78
2022/03/01 05:57:28;;;;;;;;;;;;;;;5.93;100.00;100173.56;5074136;28;19963;-78
2022/03/01 05:59:56;;;;;;;;;;;;;;;6.20;100.00;100175.28;5072522;28;20280;-78
2022/03/01 06:02:23;;;;;;;;;;;;;;;5.99;100.00;100174.88;5073654;28;19951;-78
2022/03/01 06:04:51;;;;;;;;;;;;;;;5.60;100.00;100185.94;5073950;28;19956;-78
2022/03/01 06:07:18;;;;;;;;;;;;;;;5.78;100.00;100191.06;5074031;28;19924;-77
2022/03/01 06:09:45;;;;;;;;;;;;;;;6.13;100.00;100187.09;5074306;28;20069;-79
2022/03/01 06:12:14;;;;;;;;;;;;;;;5.85;100.00;100192.06;5072489;28;20015;-78
2022/03/01 06:14:41;;;;;;;;;;;;;;;6.09;100.00;100190.97;5056606;28;20257;-79
2022/03/01 06:17:09;;;;;;;;;;;;;;;5.68;100.00;100197.22;5106873;28;19955;-80
2022/03/01 06:19:36;;;;;;;;;;;;;;;5.89;100.00;100183.81;5074472;28;19928;-79
2022/03/01 06:22:07;;;;;;;;;;;;;;;5.58;100.00;100190.25;5072690;28;19925;-79
2022/03/01 06:24:38;;;;;;;;;;;;;;;5.63;100.00;100191.94;5074051;28;19931;-78
2022/03/01 06:27:08;;;;;;;;;;;;;;;5.81;100.00;100193.13;5105930;28;19924;-78
2022/03/01 06:29:36;;;;;;;;;;;;;;;5.56;100.00;100193.41;5073841;28;19946;-78
2022/03/01 06:32:04;;;;;;;;;;;;;;;5.78;100.00;100191.88;5072138;28;19928;-78
2022/03/01 06:34:32;;;;;;;;;;;;;;;5.73;100.00;100200.47;5072374;28;19931;-78
2022/03/01 06:37:06;;;;;;;;;;;;;;;5.95;100.00;100199.00;5073188;28;20007;-78
2022/03/01 06:39:34;;;;;;;;;;;;;;;5.71;100.00;100196.47;5073552;28;19935;-78
2022/03/01 06:42:01;;;;;;;;;;;;;;;5.96;100.00;100193.06;5071901;28;19943;-78
2022/03/01 06:44:28;;;;;;;;;;;;;;;5.65;100.00;100198.72;5073761;28;19924;-78
2022/03/01 06:46:56;;;;;;;;;;;;;;;5.28;100.00;100203.06;5077479;28;19924;-78
2022/03/01 06:49:23;;;;;;;;;;;;;;;5.55;100.00;100215.94;5060033;28;19929;-78
2022/03/01 06:51:51;;;;;;;;;;;;;;;5.71;100.00;100229.75;5057511;28;19925;-78
2022/03/01 06:54:18;;;;;;;;;;;;;;;5.79;100.00;100224.00;5057341;28;19963;-78
2022/03/01 06:56:46;;;;;;;;;;;;;;;5.85;100.00;100225.34;5062338;28;19924;-78
2022/03/01 06:59:15;;;;;;;;;;;;;;;6.12;100.00;100231.84;5076064;28;19970;-78
2022/03/01 07:01:43;;;;;;;;;;;;;;;6.10;100.00;100228.63;5077090;28;20282;-78
2022/03/01 07:04:10;;;;;;;;;;;;;;;5.70;100.00;100239.22;5077169;28;19931;-78
2022/03/01 07:06:38;;;;;;;;;;;;;;;5.80;100.00;100249.75;5110012;28;19924;-78
2022/03/01 07:09:05;;;;;;;;;;;;;;;6.20;100.00;100258.56;5075774;28;19931;-78
2022/03/01 07:11:32;;;;;;;;;;;;;;;6.33;100.00;100251.69;5059594;28;19928;-79
2022/03/01 07:13:59;;;;;;;;;;;;;;;6.16;100.00;100257.69;5077201;28;19925;-79
2022/03/01 07:16:26;;;;;;;;;;;;;;;6.11;100.00;100260.75;5077107;28;19962;-78
2022/03/01 07:18:54;;;;;;;;;;;;;;;5.62;100.00;100259.66;5076883;28;20004;-77
2022/03/01 07:21:22;;;;;;;;;;;;;;;6.10;100.00;100271.06;5075590;28;19978;-78
2022/03/01 07:23:50;;;;;;;;;;;;;;;5.83;100.00;100260.16;5076738;28;19925;-79
2022/03/01 07:26:18;;;;;;;;;;;;;;;6.07;100.00;100274.56;5047360;28;19925;-79
2022/03/01 07:28:47;;;;;;;;;;;;;;;5.77;100.00;100278.22;5055712;28;20003;-79
2022/03/01 07:31:15;;;;;;;;;;;;;;;6.02;100.00;100274.03;5055699;28;20261;-79
2022/03/01 07:33:43;;;;;;;;;;;;;;;5.93;100.00;100267.91;5055496;28;20023;-79
2022/03/01 07:36:11;;;;;;;;;;;;;;;5.98;100.00;100278.72;5055779;28;19924;-79
2022/03/01 07:38:38;;;;;;;;;;;;;;;6.07;100.00;100282.09;5054392;28;19931;-79
2022/03/01 07:41:07;;;;;;;;;;;;;;;5.88;100.00;100279.31;5055458;28;19931;-79
2022/03/01 07:43:34;;;;;;;;;;;;;;;6.09;100.00;100285.31;5055268;28;19928;-79
2022/03/01 07:46:03;;;;;;;;;;;;;;;5.88;100.00;100279.31;5055601;28;19925;-79
2022/03/01 07:48:30;;;;;;;;;;;;;;;6.15;100.00;100301.28;5055311;28;19924;-79
2022/03/01 07:50:57;;;;;;;;;;;;;;;6.22;100.00;100298.69;5056499;28;19925;-79
2022/03/01 07:53:24;;;;;;;;;;;;;;;6.37;100.00;100292.25;5088527;28;19929;-79
2022/03/01 07:55:51;;;;;;;;;;;;;;;6.48;100.00;100298.00;5054977;28;20336;-79
2022/03/01 07:58:18;;;;;;;;;;;;;;;6.40;100.00;100296.25;5088140;28;20299;-79
2022/03/01 08:00:46;;;;;;;;;;;;;;;6.35;100.00;100310.41;5055319;28;19925;-78
2022/03/01 08:03:13;;;;;;;;;;;;;;;6.52;100.00;100304.44;5038451;28;20342;-79
2022/03/01 08:05:41;;;;;;;;;;;;;;;6.61;100.00;100299.44;5072012;28;19925;-78
2022/03/01 08:08:08;;;;;;;;;;;;;;;6.58;100.00;100309.31;5054882;28;19948;-78
2022/03/01 08:10:35;;;;;;;;;;;;;;;6.56;100.00;100305.28;5005558;28;20407;-78
2022/03/01 08:13:05;;;;;;;;;;;;;;;6.78;100.00;100296.19;5056167;28;20423;-79
2022/03/01 08:16:16;;;;;;;;;;;;;;;6.96;100.00;100302.88;5041743;28;20440;-78
2022/03/01 08:18:46;;;;;;;;;;;;;;;6.80;100.00;100293.88;5047280;28;19924;-78
2022/03/01 08:21:13;;;;;;;;;;;;;;;6.86;100.00;100309.06;5074692;28;19925;-78
2022/03/01 08:23:42;;;;;;;;;;;;;;;6.89;100.00;100319.44;5041448;28;20006;-78
2022/03/01 08:26:09;;;;;;;;;;;;;;;6.87;100.00;100307.88;5041639;28;19924;-78
2022/03/01 08:28:37;;;;;;;;;;;;;;;6.95;100.00;100315.97;5074385;28;20023;-78
2022/03/01 08:31:05;;;;;;;;;;;;;;;6.98;100.00;100309.66;5075713;28;19932;-78
2022/03/01 08:33:34;;;;;;;;;;;;;;;6.95;100.00;100312.41;5051825;28;19955;-81
2022/03/01 08:36:02;;;;;;;;;;;;;;;7.06;100.00;100316.16;5033780;28;20297;-80
2022/03/01 08:38:29;;;;;;;;;;;;;;;7.04;100.00;100321.31;5045483;28;19975;-79
2022/03/01 08:40:58;;;;;;;;;;;;;;;7.43;100.00;100319.19;5040746;28;19928;-79
2022/03/01 08:43:25;;;;;;;;;;;;;;;7.68;100.00;100320.38;5054317;28;20360;-79
2022/03/01 08:45:52;;;;;;;;;;;;;;;7.96;100.00;100321.59;5050809;28;20292;-80
2022/03/01 08:48:19;;;;;;;;;;;;;;;7.98;100.00;100326.78;5037451;28;19995;-80
2022/03/01 08:50:46;;;;;;;;;;;;;;;8.12;100.00;100319.44;5037404;28;20026;-80
2022/03/01 08:53:16;;;;;;;;;;;;;;;8.05;100.00;100315.75;5054459;28;19925;-79
2022/03/01 08:55:43;;;;;;;;;;;;;;;7.72;100.00;100310.91;5038500;28;19932;-79
2022/03/01 08:58:12;;;;;;;;;;;;;;;8.08;100.00;100315.81;5057573;28;19932;-80
2022/03/01 09:00:39;;;;;;;;;;;;;;;8.10;100.00;100319.03;5088385;28;19924;-79
2022/03/01 09:03:06;;;;;;;;;;;;;;;8.26;100.00;100316.88;5054205;28;19940;-80
2022/03/01 09:05:34;;;;;;;;;;;;;;;8.26;100.00;100291.81;5054080;28;19924;-80
2022/03/01 09:08:01;;;;;;;;;;;;;;;8.29;100.00;100299.41;5041161;28;19931;-79
2022/03/01 09:10:28;;;;;;;;;;;;;;;8.23;100.00;100308.47;5041646;28;20388;-79
2022/03/01 09:12:56;;;;;;;;;;;;;;;8.21;100.00;100311.59;5070108;28;19936;-78
2022/03/01 09:15:26;;;;;;;;;;;;;;;8.33;100.00;100305.81;5053967;28;20284;-78
2022/03/01 09:17:54;;;;;;;;;;;;;;;8.05;100.00;100299.06;5059082;28;19976;-78
2022/03/01 09:20:23;;;;;;;;;;;;;;;7.66;100.00;100304.06;5074838;28;20361;-78
2022/03/01 09:22:50;;;;;;;;;;;;;;;7.95;100.00;100311.63;5073622;28;19930;-78
2022/03/01 09:25:17;;;;;;;;;;;;;;;7.91;100.00;100319.13;5107439;28;19924;-78
2022/03/01 09:27:45;;;;;;;;;;;;;;;7.74;100.00;100310.53;5056848;28;19972;-78
2022/03/01 09:30:13;;;;;;;;;;;;;;;7.81;100.00;100310.63;5069160;28;20392;-78
2022/03/01 09:32:40;;;;;;;;;;;;;;;7.36;100.00;100300.41;5054647;28;19955;-78
2022/03/01 09:35:08;;;;;;;;;;;;;;;7.38;100.00;100297.25;5036618;28;19931;-78
2022/03/01 09:37:35;;;;;;;;;;;;;;;7.51;100.00;100296.69;5054618;28;20020;-78
2022/03/01 09:40:04;;;;;;;;;;;;;;;7.32;100.00;100310.66;5040169;28;20349;-80
2022/03/01 09:42:32;;;;;;;;;;;;;;;7.14;100.00;100304.81;5053640;28;20015;-80
2022/03/01 09:45:00;;;;;;;;;;;;;;;7.61;100.00;100307.16;5055965;28;20020;-80
2022/03/01 09:47:27;;;;;;;;;;;;;;;7.49;100.00;100310.16;5037027;28;19925;-80
2022/03/01 09:49:54;;;;;;;;;;;;;;;7.27;100.00;100314.56;5058348;28;20372;-80
2022/03/01 09:52:21;;;;;;;;;;;;;;;7.60;100.00;100316.69;5073204;28;19925;-80
2022/03/01 09:54:49;;;;;;;;;;;;;;;7.64;100.00;100311.97;5074028;28;20009;-80
2022/03/01 09:57:16;;;;;;;;;;;;;;;7.64;100.00;100306.41;5072886;28;19929;-80
2022/03/01 09:59:43;;;;;;;;;;;;;;;7.78;100.00;100301.06;5106989;28;19924;-79
2022/03/01 10:02:11;;;;;;;;;;;;;;;7.77;100.00;100310.56;5056104;28;19938;-77
2022/03/01 10:04:51;;;;;;;;;;;;;;;7.83;100.00;100305.50;5072665;28;19939;-77
2022/03/01 10:07:29;;;;;;;;;;;;;;;7.90;100.00;100302.81;5068629;28;19955;-78
2022/03/01 10:10:06;;;;;;;;;;;;;;;8.01;100.00;100310.13;5073296;28;19932;-78
2022/03/01 10:12:33;;;;;;;;;;;;;;;7.74;100.00;100305.75;5056210;28;19996;-78
2022/03/01 10:15:04;;;;;;;;;;;;;;;7.88;100.00;100310.72;5039687;28;20312;-77
2022/03/01 10:17:38;;;;;;;;;;;;;;;7.98;100.00;100316.44;5072770;28;19932;-78
2022/03/01 10:20:10;;;;;;;;;;;;;;;8.43;100.00;100313.53;5073596;28;20019;-78
2022/03/01 10:22:49;;;;;;;;;;;;;;;8.12;100.00;100316.66;5073910;28;19931;-78
2022/03/01 10:25:17;;;;;;;;;;;;;;;8.07;100.00;100324.53;5072527;28;20447;-77
2022/03/01 10:27:48;;;;;;;;;;;;;;;7.98;100.00;100316.44;5053158;28;19978;-76
2022/03/01 10:30:27;;;;;;;;;;;;;;;7.91;100.00;100321.09;5050092;28;19990;-78
2022/03/01 10:33:04;;;;;;;;;;;;;;;8.15;100.00;100310.31;5052209;28;19925;-79
2022/03/01 10:35:31;;;;;;;;;;;;;;;8.46;100.00;100326.69;5053701;28;19932;-78
2022/03/01 10:37:59;;;;;;;;;;;;;;;8.70;100.00;100317.00;5053675;28;19925;-78
2022/03/01 10:40:28;;;;;;;;;;;;;;;9.03;100.00;100320.56;5052676;28;20358;-78
2022/03/01 10:43:09;;;;;;;;;;;;;;;8.91;100.00;100325.59;5035023;28;19924;-78
2022/03/01 10:45:39;;;;;;;;;;;;;;;8.99;100.00;100322.53;5051630;28;19964;-78
2022/03/01 10:48:08;;;;;;;;;;;;;;;9.18;100.00;100319.50;5035201;28;19935;-78
2022/03/01 10:50:36;;;;;;;;;;;;;;;8.66;100.00;100319.75;5051917;28;19924;-78
2022/03/01 10:53:03;;;;;;;;;;;;;;;8.45;100.00;100319.50;5034969;28;20383;-78
2022/03/01 10:55:32;;;;;;;;;;;;;;;8.39;100.00;100326.59;5052851;28;19935;-78
2022/03/01 10:58:04;;;;;;;;;;;;;;;8.56;100.00;100326.00;5052637;28;20342;-78
2022/03/01 11:00:32;;;;;;;;;;;;;;;8.84;100.00;100331.91;5050859;28;19925;-78
2022/03/01 11:02:59;;;;;;;;;;;;;;;9.00;100.00;100329.69;5067716;28;19925;-78
2022/03/01 11:05:29;;;;;;;;;;;;;;;9.03;100.00;100323.34;5052584;28;20009;-78
2022/03/01 11:08:10;;;;;;;;;;;;;;;8.83;100.00;100324.72;5034643;28;20023;-78
2022/03/01 11:10:38;;;;;;;;;;;;;;;8.77;100.00;100320.69;5051250;28;19925;-78
2022/03/01 11:13:06;;;;;;;;;;;;;;;8.97;100.00;100319.31;5051348;28;19924;-78
2022/03/01 11:15:42;;;;;;;;;;;;;;;9.11;100.00;100324.22;5052499;28;19925;-78
2022/03/01 11:18:18;;;;;;;;;;;;;;;8.85;100.00;100315.97;5051680;28;19925;-78
2022/03/01 11:20:49;;;;;;;;;;;;;;;9.23;100.00;100309.19;5034771;28;19925;-78
2022/03/01 11:23:20;;;;;;;;;;;;;;;9.03;100.00;100306.63;5051261;28;20013;-78
2022/03/01 11:25:48;;;;;;;;;;;;;;;8.89;100.00;100300.91;5052452;28;19939;-78
2022/03/01 11:28:16;;;;;;;;;;;;;;;9.23;100.00;100303.59;5051231;28;19925;-78
2022/03/01 11:30:45;;;;;;;;;;;;;;;9.01;100.00;100308.97;5051026;28;19932;-77
2022/03/01 11:33:23;;;;;;;;;;;;;;;9.48;100.00;100304.63;5054132;28;19924;-78
2022/03/01 11:35:53;;;;;;;;;;;;;;;9.56;100.00;100304.28;5056234;28;19968;-78
2022/03/01 11:38:24;;;;;;;;;;;;;;;9.91;100.00;100298.94;5065591;28;19971;-78
2022/03/01 11:40:51;;;;;;;;;;;;;;;9.70;100.00;100290.44;5055367;28;19939;-78
2022/03/01 11:43:27;;;;;;;;;;;;;;;9.55;100.00;100294.31;5055271;28;19924;-78
2022/03/01 11:45:56;;;;;;;;;;;;;;;9.08;100.00;100297.91;5055717;28;19925;-77
2022/03/01 11:48:24;;;;;;;;;;;;;;;9.40;100.00;100283.44;5092234;28;19924;-78
2022/03/01 11:50:59;;;;;;;;;;;;;;;9.29;100.00;100290.91;5056371;28;20070;-78
2022/03/01 11:53:29;;;;;;;;;;;;;;;9.65;100.00;100285.22;5075791;28;19935;-78
2022/03/01 11:55:57;;;;;;;;;;;;;;;9.72;100.00;100279.69;5066541;28;19932;-78
2022/03/01 11:58:24;;;;;;;;;;;;;;;9.39;100.00;100282.63;5059996;28;19952;-78
2022/03/01 12:00:52;;;;;;;;;;;;;;;9.58;100.00;100282.38;5059982;28;19991;-78
2022/03/01 12:03:21;;;;;;;;;;;;;;;9.11;100.00;100283.22;5054808;28;19987;-78
2022/03/01 12:05:49;;;;;;;;;;;;;;;9.31;100.00;100288.53;5088243;28;19924;-77
2022/03/01 12:08:17;;;;;;;;;;;;;;;9.19;100.00;100279.28;5055181;28;19931;-77
2022/03/01 12:10:52;;;;;;;;;;;;;;;8.91;100.00;100269.84;5056127;28;20535;-77
2022/03/01 12:13:20;;;;;;;;;;;;;;;9.24;100.00;100271.75;5038498;28;19925;-78
2022/03/01 12:15:56;;;;;;;;;;;;;;;9.26;100.00;100267.38;5071098;28;19936;-77
2022/03/01 12:18:27;;;;;;;;;;;;;;;8.89;100.00;100278.59;5062831;28;19932;-77
2022/03/01 12:20:59;;;;;;;;;;;;;;;8.83;100.00;100263.41;5057855;28;20346;-77
2022/03/01 12:23:28;;;;;;;;;;;;;;;8.62;100.00;100263.19;5058055;28;20300;-77
2022/03/01 12:25:58;;;;;;;;;;;;;;;8.55;100.00;100277.06;5074599;28;20015;-77
2022/03/01 12:28:26;;;;;;;;;;;;;;;8.63;100.00;100281.50;5074391;28;19932;-77
2022/03/01 12:30:53;;;;;;;;;;;;;;;8.80;100.00;100280.91;5075658;28;19932;-77
2022/03/01 12:33:21;;;;;;;;;;;;;;;8.82;100.00;100272.16;5074682;28;19924;-77
2022/03/01 12:36:03;;;;;;;;;;;;;;;8.81;100.00;100279.72;5074099;28;19952;-77
2022/03/01 12:38:32;;;;;;;;;;;;;;;8.69;100.00;100271.63;5074362;28;20375;-77
2022/03/01 12:41:07;;;;;;;;;;;;;;;9.12;100.00;100270.84;5074332;28;19925;-77
2022/03/01 12:43:34;;;;;;;;;;;;;;;8.89;100.00;100261.88;5074813;28;19936;-77
2022/03/01 12:46:01;;;;;;;;;;;;;;;9.29;100.00;100257.44;5057440;28;19928;-77